Time;durP1;ratioP1;P1;durP2;ratioP2;P2;SDS_P1;SDS_P2;PMS_P1;PMS_P2;Temp;Humidity;BMP_temperature;BMP_pressure;BME280_temperature;BME280_humidity;BME280_pressure;Samples;Min_cycle;Max_cycle;Signal;HPM_P1;HPM_P2
2022/05/24 00:00:34;;;;;;;27.30;15.50;;;;;;;6.23;77.53;99098.13;109104;1277;139236;-57
2022/05/24 00:03:01;;;;;;;31.70;16.40;;;;;;;6.23;77.25;99101.88;109113;1277;22551;-57
2022/05/24 00:05:29;;;;;;;31.40;16.00;;;;;;;6.22;77.00;99102.22;109005;1277;139243;-57
2022/05/24 00:07:56;;;;;;;24.30;15.80;;;;;;;6.20;77.09;99107.94;109023;1277;24571;-57
2022/05/24 00:10:26;;;;;;;23.10;14.00;;;;;;;6.17;77.09;99104.75;109109;1277;22446;-57
2022/05/24 00:12:53;;;;;;;29.80;14.60;;;;;;;6.14;76.85;99107.77;109101;1277;138207;-57
2022/05/24 00:15:22;;;;;;;;;;;;;;;6.11;77.08;99106.79;109156;1277;22595;-57
2022/05/24 00:18:22;;;;;;;26.30;15.50;;;;;;;6.10;77.17;99111.55;109012;1277;125865;-57
2022/05/24 00:20:50;;;;;;;25.90;15.20;;;;;;;6.09;77.19;99108.61;109054;1277;22510;-57
2022/05/24 00:23:18;;;;;;;25.20;14.90;;;;;;;6.08;77.42;99108.21;108905;1278;138632;-58
2022/05/24 00:25:46;;;;;;;25.80;14.50;;;;;;;6.05;77.45;99109.64;109065;1277;22665;-57
2022/05/24 00:28:14;;;;;;;24.60;14.20;;;;;;;6.02;77.28;99111.80;109066;1277;22490;-57
2022/05/24 00:30:41;;;;;;;24.80;13.80;;;;;;;6.00;77.26;99115.37;108903;1277;139949;-57
2022/05/24 00:33:08;;;;;;;27.30;14.60;;;;;;;5.99;77.67;99110.38;109115;1277;23240;-57
2022/05/24 00:35:34;;;;;;;;;;;;;;;5.99;77.49;99109.23;109315;1274;138174;-57
2022/05/24 00:38:01;;;;;;;27.70;14.30;;;;;;;5.96;77.46;99109.00;109422;1274;22232;-57
2022/05/24 00:40:47;;;;;;;;;;;;;;;5.94;77.50;99110.90;109148;1274;23417;-57
2022/05/24 00:43:23;;;;;;;22.80;13.30;;;;;;;5.91;77.43;99113.67;109296;1273;124649;-57
2022/05/24 00:45:52;;;;;;;26.30;15.30;;;;;;;5.89;77.73;99118.06;108058;1276;24157;-57
2022/05/24 00:48:22;;;;;;;23.30;14.20;;;;;;;5.87;77.55;99119.94;109245;1274;139192;-57
2022/05/24 00:50:51;;;;;;;22.30;12.70;;;;;;;5.82;77.63;99116.64;109174;1274;22516;-57
2022/05/24 00:53:29;;;;;;;22.70;14.30;;;;;;;5.82;77.70;99116.52;109247;1274;138320;-57
2022/05/24 00:56:07;;;;;;;25.10;15.50;;;;;;;5.78;77.88;99118.75;109458;1273;22391;-57
2022/05/24 00:58:45;;;;;;;24.00;14.30;;;;;;;5.76;77.87;99124.89;109221;1274;22641;-57
2022/05/24 01:01:53;;;;;;;23.90;13.70;;;;;;;5.76;77.76;99122.02;109213;1274;139004;-57
2022/05/24 01:04:20;;;;;;;23.10;14.50;;;;;;;5.74;77.94;99125.21;108970;1277;22395;-57
2022/05/24 01:06:48;;;;;;;24.50;15.40;;;;;;;5.72;78.04;99124.73;109020;1277;138946;-57
2022/05/24 01:09:23;;;;;;;24.40;13.70;;;;;;;5.71;77.88;99125.79;109114;1277;23186;-57
2022/05/24 01:11:52;;;;;;;27.80;15.50;;;;;;;5.71;77.78;99126.75;108973;1277;138464;-57
2022/05/24 01:14:20;;;;;;;27.80;14.10;;;;;;;5.70;77.85;99122.73;108994;1279;22463;-57
2022/05/24 01:16:46;;;;;;;29.40;15.10;;;;;;;5.71;78.07;99124.10;108758;1280;23545;-57
2022/05/24 01:19:36;;;;;;;26.60;14.50;;;;;;;5.70;78.03;99125.06;108633;1280;138530;-57
2022/05/24 01:22:27;;;;;;;26.10;14.70;;;;;;;5.69;77.51;99124.55;109090;1277;22460;-57
2022/05/24 01:25:02;;;;;;;25.40;14.60;;;;;;;5.67;77.92;99124.95;109023;1277;138274;-57
2022/05/24 01:27:28;;;;;;;25.60;14.60;;;;;;;5.65;77.85;99125.39;104993;1277;22755;-57
2022/05/24 01:29:55;;;;;;;;;;;;;;;5.64;78.23;99124.80;104702;1277;138615;-56
2022/05/24 01:37:54;;;;;;;24.30;14.50;;;;;;;5.53;78.00;99122.83;104491;1277;25143;-56
2022/05/24 01:40:20;;;;;;;;;;;;;;;5.51;77.72;99124.77;104578;1277;23443;-56
2022/05/24 01:42:47;;;;;;;27.70;13.50;;;;;;;5.47;77.94;99126.53;104939;1274;124707;-56
2022/05/24 01:45:18;;;;;;;26.60;14.90;;;;;;;5.44;78.06;99127.55;105046;1274;22638;-56
2022/05/24 01:47:55;;;;;;;24.80;14.90;;;;;;;5.41;78.26;99128.16;109180;1274;138166;-57
2022/05/24 01:50:22;;;;;;;28.00;15.30;;;;;;;5.39;78.41;99127.69;109363;1274;22448;-57
2022/05/24 01:52:54;;;;;;;30.50;15.20;;;;;;;5.38;78.38;99130.42;109456;1274;22495;-57
2022/05/24 01:55:27;;;;;;;24.60;13.40;;;;;;;5.36;78.44;99139.92;109022;1274;138778;-57
2022/05/24 01:57:56;;;;;;;21.90;13.90;;;;;;;5.37;78.72;99132.67;109317;1273;22439;-57
2022/05/24 02:00:22;;;;;;;25.20;14.60;;;;;;;5.38;78.40;99136.94;109164;1274;138349;-57
2022/05/24 02:02:49;;;;;;;;;;;;;;;5.34;78.12;99143.67;109401;1274;22650;-57
2022/05/24 02:05:29;;;;;;;27.80;15.20;;;;;;;5.36;78.55;99140.05;109346;1274;124271;-57
2022/05/24 02:07:56;;;;;;;27.40;13.80;;;;;;;5.38;78.28;99144.09;109433;1274;22244;-57
2022/05/24 02:10:23;;;;;;;;;;;;;;;5.38;78.62;99148.83;109435;1274;22564;-57
2022/05/24 02:12:52;;;;;;;25.60;15.80;;;;;;;5.40;78.43;99149.33;109300;1274;124288;-57
2022/05/24 02:15:21;;;;;;;29.40;15.80;;;;;;;5.42;78.19;99152.09;109451;1274;22448;-57
2022/05/24 02:17:50;;;;;;;27.50;14.30;;;;;;;5.42;78.41;99151.42;109338;1274;139094;-57
2022/05/24 02:20:20;;;;;;;26.40;15.70;;;;;;;5.42;78.57;99155.01;109349;1274;22565;-57
2022/05/24 02:22:47;;;;;;;25.80;14.40;;;;;;;5.44;78.84;99154.55;109328;1274;23798;-57
2022/05/24 02:25:16;;;;;;;28.60;15.60;;;;;;;5.46;78.39;99151.05;109205;1274;139106;-56
2022/05/24 02:27:44;;;;;;;32.80;15.50;;;;;;;5.47;78.15;99152.52;109295;1274;22547;-57
2022/05/24 02:30:12;;;;;;;29.50;16.30;;;;;;;5.43;78.16;99152.45;109298;1274;138852;-57
2022/05/24 02:32:39;;;;;;;26.60;14.20;;;;;;;5.41;78.31;99153.27;109413;1274;23075;-57
2022/05/24 02:38:00;;;;;;;29.70;17.00;;;;;;;5.43;78.23;99154.10;102040;1307;545762;-56
2022/05/24 02:43:12;;;;;;;25.70;14.90;;;;;;;5.42;78.61;99156.84;103885;1284;124407;-56
2022/05/24 02:45:39;;;;;;;;;;;;;;;5.42;79.01;99155.80;103879;1287;22589;-57
2022/05/24 02:48:07;;;;;;;26.70;14.40;;;;;;;5.43;78.78;99156.15;103766;1287;125362;-56
2022/05/24 02:50:33;;;;;;;27.20;15.10;;;;;;;5.45;79.00;99157.08;103668;1287;287911;-55
2022/05/24 02:53:00;;;;;;;;;;;;;;;5.47;79.17;99158.91;104061;1286;23468;-55
2022/05/24 02:55:28;;;;;;;29.60;15.00;;;;;;;5.47;79.18;99159.13;104041;1284;124326;-55
2022/05/24 02:57:55;;;;;;;;;;;;;;;5.49;79.28;99158.45;104031;1287;25295;-55
2022/05/24 03:00:23;;;;;;;29.10;15.30;;;;;;;5.52;79.73;99158.52;103989;1284;123620;-56
2022/05/24 03:02:50;;;;;;;30.10;17.40;;;;;;;5.54;79.69;99165.92;104315;1284;22739;-55
2022/05/24 03:05:21;;;;;;;36.20;19.60;;;;;;;5.59;79.85;99174.50;108393;1283;23239;-56
2022/05/24 03:10:33;;;;;;;26.70;16.70;;;;;;;5.81;79.67;99179.04;108270;1284;22473;-56
2022/05/24 03:15:46;;;;;;;31.30;16.90;;;;;;;6.04;80.07;99182.31;108362;1285;22539;-56
2022/05/24 03:18:13;;;;;;;;;;;;;;;6.16;79.82;99183.23;108317;1284;139878;-56
2022/05/24 03:20:40;;;;;;;31.20;17.10;;;;;;;6.25;80.03;99183.35;108383;1284;23198;-56
2022/05/24 03:23:07;;;;;;;33.80;17.70;;;;;;;6.34;80.02;99177.31;108444;1285;22447;-56
2022/05/24 03:25:35;;;;;;;34.00;17.20;;;;;;;6.48;80.01;99180.41;108224;1284;137790;-56
2022/05/24 03:28:03;;;;;;;28.50;15.50;;;;;;;6.59;80.05;99177.35;108263;1286;22510;-56
2022/05/24 03:30:31;;;;;;;28.90;16.20;;;;;;;6.71;79.77;99181.16;108288;1284;152013;-57
2022/05/24 03:32:57;;;;;;;28.70;17.00;;;;;;;6.85;79.80;99188.45;108181;1287;22455;-56
2022/05/24 03:35:24;;;;;;;31.60;16.50;;;;;;;6.97;79.51;99189.17;108220;1286;22541;-57
2022/05/24 03:37:51;;;;;;;27.20;17.00;;;;;;;7.09;79.53;99187.56;108235;1286;138807;-56
2022/05/24 03:40:18;;;;;;;35.90;18.50;;;;;;;7.21;79.37;99186.46;108622;1281;22598;-56
2022/05/24 03:42:45;;;;;;;;;;;;;;;7.33;79.05;99185.43;108695;1281;138095;-56
2022/05/24 03:45:13;;;;;;;27.80;17.50;;;;;;;7.45;78.61;99180.48;108770;1282;23551;-56
2022/05/24 03:47:39;;;;;;;35.40;16.80;;;;;;;7.57;78.51;99175.52;108571;1282;138682;-57
2022/05/24 03:50:06;;;;;;;;;;;;;;;7.69;78.54;99182.33;108717;1283;22688;-56
2022/05/24 03:52:33;;;;;;;30.30;17.70;;;;;;;7.81;77.84;99184.13;109206;1277;22420;-58
2022/05/24 03:55:00;;;;;;;;;;;;;;;7.92;77.02;99184.90;109048;1278;140338;-57
2022/05/24 03:58:13;;;;;;;39.30;18.30;;;;;;;8.04;76.57;99184.91;109141;1278;22537;-57
2022/05/24 04:00:15;;;;;;;30.20;19.30;;;;;;;8.18;76.06;99182.30;108853;1278;140072;-57
2022/05/24 04:02:42;;;;;;;35.50;18.90;;;;;;;8.29;75.64;99183.90;109199;1277;23749;-56
2022/05/24 04:05:09;;;;;;;33.80;19.60;;;;;;;8.42;75.51;99183.17;109172;1276;22665;-56
2022/05/24 04:07:37;;;;;;;27.40;17.00;;;;;;;8.55;75.03;99188.87;104717;1278;138586;-56
2022/05/24 04:10:05;;;;;;;32.70;17.70;;;;;;;8.67;74.12;99188.05;104767;1280;22534;-56
2022/05/24 04:12:32;;;;;;;34.60;18.00;;;;;;;8.81;73.73;99189.08;109085;1277;138596;-57
2022/05/24 04:14:59;;;;;;;29.00;16.50;;;;;;;8.97;72.93;99190.77;109170;1277;23855;-57
2022/05/24 04:17:31;;;;;;;31.20;17.80;;;;;;;9.14;72.35;99195.30;108933;1277;137685;-57
2022/05/24 04:19:58;;;;;;;;;;;;;;;9.30;72.08;99198.72;109141;1277;22480;-57
2022/05/24 04:22:25;;;;;;;23.70;13.60;;;;;;;9.44;71.45;99201.52;109172;1277;22443;-57
2022/05/24 04:24:51;;;;;;;;;;;;;;;9.57;70.56;99200.05;109058;1277;138810;-57
2022/05/24 04:27:18;;;;;;;22.40;13.50;;;;;;;9.73;69.88;99200.83;109085;1277;22243;-57
2022/05/24 04:29:45;;;;;;;;;;;;;;;9.87;69.64;99202.85;109124;1277;139078;-57
2022/05/24 04:32:12;;;;;;;20.20;9.70;;;;;;;10.03;67.99;99197.23;109173;1277;22566;-57
2022/05/24 04:34:38;;;;;;;;;;;;;;;10.21;66.51;99199.05;109095;1278;22668;-57
2022/05/24 04:37:07;;;;;;;15.30;7.90;;;;;;;10.40;65.32;99204.45;105536;1278;123573;-56
2022/05/24 04:39:34;;;;;;;16.90;9.60;;;;;;;10.56;64.11;99196.90;109149;1277;22441;-57
2022/05/24 04:42:20;;;;;;;15.90;9.40;;;;;;;10.74;63.10;99197.41;109028;1277;138151;-57
2022/05/24 04:44:48;;;;;;;16.20;9.60;;;;;;;10.90;62.12;99199.44;109164;1277;23383;-57
2022/05/24 04:47:16;;;;;;;14.60;8.80;;;;;;;11.05;61.47;99199.31;109193;1277;22982;-57
2022/05/24 04:49:44;;;;;;;13.70;7.80;;;;;;;11.18;60.55;99196.83;109015;1277;137296;-57
2022/05/24 04:52:13;;;;;;;16.10;7.60;;;;;;;11.32;59.78;99200.56;109097;1277;22455;-57
2022/05/24 04:54:41;;;;;;;14.50;7.50;;;;;;;11.45;59.00;99202.10;108978;1277;137393;-57
2022/05/24 04:57:08;;;;;;;13.90;7.50;;;;;;;11.57;58.25;99205.11;109182;1277;22507;-57
2022/05/24 04:59:35;;;;;;;11.60;6.00;;;;;;;11.71;57.27;99204.69;109060;1277;138782;-57
2022/05/24 05:02:02;;;;;;;13.60;6.20;;;;;;;11.86;55.27;99203.89;109226;1277;22474;-57
2022/05/24 05:04:29;;;;;;;17.30;7.60;;;;;;;12.00;54.84;99203.83;109224;1277;23134;-57
2022/05/24 05:06:56;;;;;;;11.80;6.80;;;;;;;12.17;53.92;99205.33;109119;1277;137715;-57
2022/05/24 05:09:23;;;;;;;;;;;;;;;12.38;53.60;99207.89;109212;1277;22622;-57
2022/05/24 05:11:49;;;;;;;12.40;7.00;;;;;;;12.65;52.32;99206.39;109011;1277;123713;-57
2022/05/24 05:14:19;;;;;;;10.70;5.70;;;;;;;13.00;51.14;99204.42;109140;1277;22432;-57
2022/05/24 05:16:46;;;;;;;;;;;;;;;13.41;49.54;99208.75;109054;1277;22598;-57
2022/05/24 05:19:13;;;;;;;12.20;6.60;;;;;;;13.82;48.43;99209.92;108999;1277;124509;-57
2022/05/24 05:21:40;;;;;;;10.90;5.90;;;;;;;14.21;47.37;99210.17;108933;1280;23310;-57
2022/05/24 05:24:07;;;;;;;8.20;5.20;;;;;;;14.60;46.06;99213.50;108853;1279;138798;-57
2022/05/24 05:26:34;;;;;;;7.60;4.90;;;;;;;14.97;44.59;99212.00;109042;1277;22443;-57
2022/05/24 05:29:01;;;;;;;8.50;4.60;;;;;;;15.34;42.35;99205.63;109119;1277;22432;-57
2022/05/24 05:31:28;;;;;;;10.50;5.50;;;;;;;15.65;41.05;99203.80;109044;1277;137162;-57
2022/05/24 05:33:58;;;;;;;9.40;5.40;;;;;;;15.92;40.98;99206.81;109076;1277;23508;-57
2022/05/24 05:36:27;;;;;;;9.00;5.20;;;;;;;16.22;39.86;99208.38;106753;1277;137204;-57
2022/05/24 05:38:54;;;;;;;8.10;5.50;;;;;;;16.47;38.60;99206.31;104888;1278;22881;-57
2022/05/24 05:41:25;;;;;;;7.90;5.40;;;;;;;16.71;38.79;99202.80;108975;1277;23610;-57
2022/05/24 05:43:51;;;;;;;9.40;5.30;;;;;;;16.95;38.19;99204.73;108945;1278;137048;-58
2022/05/24 05:46:18;;;;;;;10.60;5.70;;;;;;;17.16;37.75;99199.96;108985;1277;22501;-58
2022/05/24 05:48:46;;;;;;;8.00;4.90;;;;;;;17.39;37.16;99199.55;109032;1276;137894;-57
2022/05/24 05:51:14;;;;;;;9.40;5.60;;;;;;;17.58;35.73;99199.48;109004;1277;23163;-57
2022/05/24 05:53:41;;;;;;;12.10;5.50;;;;;;;17.66;35.96;99200.04;109036;1277;137461;-58
2022/05/24 05:56:19;;;;;;;11.10;5.40;;;;;;;17.73;36.08;99195.42;109050;1277;22540;-58
2022/05/24 05:58:46;;;;;;;9.30;5.20;;;;;;;17.77;35.59;99200.10;108823;1277;22520;-58
2022/05/24 06:01:17;;;;;;;9.40;5.80;;;;;;;17.77;35.93;99203.15;108932;1277;137345;-58
2022/05/24 06:03:44;;;;;;;9.90;5.20;;;;;;;17.77;35.33;99204.41;109151;1277;23721;-58
2022/05/24 06:06:14;;;;;;;12.80;5.30;;;;;;;17.62;34.42;99206.23;109070;1277;137384;-58
2022/05/24 06:08:40;;;;;;;10.80;5.10;;;;;;;17.35;34.59;99203.73;109007;1277;23346;-57
2022/05/24 06:11:07;;;;;;;8.50;3.90;;;;;;;17.15;34.91;99208.40;108976;1278;22481;-57
2022/05/24 06:13:34;;;;;;;6.30;3.40;;;;;;;16.96;33.11;99206.56;109002;1277;137149;-57
2022/05/24 06:16:01;;;;;;;6.60;3.90;;;;;;;16.73;33.26;99211.89;109223;1277;23242;-57
2022/05/24 06:18:28;;;;;;;7.80;3.70;;;;;;;16.48;33.07;99208.28;108962;1277;137965;-57
2022/05/24 06:20:54;;;;;;;6.00;3.20;;;;;;;16.23;32.93;99219.02;109093;1277;22550;-57
2022/05/24 06:23:24;;;;;;;5.00;2.70;;;;;;;16.04;33.16;99219.23;109035;1277;22453;-59
2022/05/24 06:25:51;;;;;;;14.40;2.70;;;;;;;15.95;32.48;99216.00;109108;1277;137486;-59
2022/05/24 06:28:18;;;;;;;5.60;2.80;;;;;;;15.87;32.82;99217.46;109110;1277;22507;-58
2022/05/24 06:30:45;;;;;;;7.10;2.60;;;;;;;15.78;33.06;99219.36;109047;1277;137969;-59
2022/05/24 06:33:12;;;;;;;5.00;1.90;;;;;;;15.69;33.76;99217.38;109160;1278;22348;-59
2022/05/24 06:35:43;;;;;;;7.00;2.30;;;;;;;15.68;33.01;99215.90;109082;1277;138415;-59
2022/05/24 06:38:10;;;;;;;5.80;2.50;;;;;;;15.67;32.16;99217.23;109282;1277;22565;-59
2022/05/24 06:40:37;;;;;;;4.50;2.40;;;;;;;15.64;32.56;99217.06;109164;1277;23234;-59
2022/05/24 06:43:04;;;;;;;4.20;2.20;;;;;;;15.60;32.71;99219.09;109107;1277;137868;-59
2022/05/24 06:45:32;;;;;;;3.10;1.80;;;;;;;15.57;33.00;99219.88;108352;1277;23192;-58
2022/05/24 06:47:59;;;;;;;2.60;2.10;;;;;;;15.58;31.75;99220.96;104750;1278;139364;-58
2022/05/24 06:50:26;;;;;;;3.20;2.10;;;;;;;15.57;32.77;99222.13;104747;1278;24098;-58
2022/05/24 06:52:56;;;;;;;4.30;2.50;;;;;;;15.54;33.06;99222.35;104889;1277;23967;-58
2022/05/24 06:55:23;;;;;;;5.40;3.20;;;;;;;15.51;33.72;99221.16;104587;1281;137979;-58
2022/05/24 06:57:50;;;;;;;6.80;2.60;;;;;;;15.53;33.94;99217.42;109219;1277;22959;-58
2022/05/24 07:03:04;;;;;;;6.80;2.90;;;;;;;15.57;33.89;99223.98;109125;1278;23532;-58
2022/05/24 07:05:31;;;;;;;8.20;2.80;;;;;;;15.52;33.60;99227.26;109060;1277;137403;-60
2022/05/24 07:08:00;;;;;;;5.90;2.00;;;;;;;15.47;33.68;99227.65;109136;1276;22256;-58
2022/05/24 07:10:29;;;;;;;3.70;2.20;;;;;;;15.43;33.15;99228.48;109016;1277;23321;-59
2022/05/24 07:13:04;;;;;;;5.30;3.20;;;;;;;15.43;33.34;99225.58;109072;1277;138260;-58
2022/05/24 07:15:31;;;;;;;6.70;2.60;;;;;;;15.42;33.91;99229.94;108422;1278;24225;-58
2022/05/24 07:17:58;;;;;;;6.80;2.50;;;;;;;15.44;33.57;99240.98;104750;1278;139990;-57
2022/05/24 07:20:25;;;;;;;7.00;2.30;;;;;;;15.46;33.74;99235.02;104762;1278;23973;-57
2022/05/24 07:22:53;;;;;;;3.20;2.20;;;;;;;15.48;33.86;99236.38;109201;1277;22559;-59
2022/05/24 07:25:20;;;;;;;8.70;3.40;;;;;;;15.49;33.58;99242.95;108886;1277;137994;-58
2022/05/24 07:27:47;;;;;;;2.80;2.20;;;;;;;15.51;33.60;99234.69;108898;1278;22474;-58
2022/05/24 07:30:15;;;;;;;4.50;2.30;;;;;;;15.54;33.79;99239.05;108863;1277;138323;-58
2022/05/24 07:32:42;;;;;;;4.00;2.60;;;;;;;15.57;33.74;99240.63;109023;1276;22411;-58
2022/05/24 07:35:10;;;;;;;5.70;2.40;;;;;;;15.59;33.70;99241.36;108987;1277;22433;-58
2022/05/24 07:37:37;;;;;;;4.80;2.40;;;;;;;15.63;33.44;99244.09;109057;1277;137411;-58
2022/05/24 07:45:48;;;;;;;6.20;2.30;;;;;;;15.70;33.57;99239.67;109020;1277;23419;-59
2022/05/24 07:48:20;;;;;;;6.20;2.40;;;;;;;15.76;33.66;99242.30;108759;1278;138391;-59
2022/05/24 07:50:47;;;;;;;4.80;2.00;;;;;;;15.80;33.30;99241.80;109082;1277;22602;-57
2022/05/24 07:53:13;;;;;;;2.80;2.10;;;;;;;15.85;33.22;99236.55;109180;1277;22461;-57
2022/05/24 07:55:40;;;;;;;4.40;2.20;;;;;;;15.92;33.23;99234.02;108879;1277;139051;-58
2022/05/24 07:58:07;;;;;;;3.20;2.00;;;;;;;15.99;32.95;99234.46;109034;1277;22554;-60
2022/05/24 08:00:35;;;;;;;4.10;2.20;;;;;;;16.03;33.15;99237.95;108878;1277;137686;-58
2022/05/24 08:03:02;;;;;;;6.00;1.90;;;;;;;16.06;32.39;99240.92;109011;1277;23117;-58
2022/05/24 08:05:30;;;;;;;3.80;1.90;;;;;;;16.06;32.26;99237.30;109222;1277;22496;-58
2022/05/24 08:07:57;;;;;;;5.50;2.40;;;;;;;16.07;31.82;99239.69;108944;1277;137238;-58
2022/05/24 08:10:24;;;;;;;4.00;2.20;;;;;;;16.09;31.53;99244.30;109132;1277;22478;-58
2022/05/24 08:12:51;;;;;;;4.00;2.50;;;;;;;16.07;31.60;99247.51;109055;1277;138075;-58
2022/05/24 08:15:18;;;;;;;2.40;2.00;;;;;;;16.04;31.86;99244.42;109211;1277;22667;-58
2022/05/24 08:17:45;;;;;;;5.70;1.70;;;;;;;16.04;31.93;99243.42;108942;1277;140229;-58
2022/05/24 08:20:12;;;;;;;4.80;2.10;;;;;;;16.08;32.92;99242.44;109020;1277;22470;-59
2022/05/24 08:22:39;;;;;;;2.80;1.80;;;;;;;16.11;33.37;99239.59;109156;1277;23211;-58
2022/05/24 08:25:07;;;;;;;4.90;1.80;;;;;;;16.17;33.23;99240.17;109118;1277;137400;-57
2022/05/24 08:27:34;;;;;;;2.80;1.90;;;;;;;16.24;32.85;99241.77;108904;1277;23173;-57
2022/05/24 08:30:01;;;;;;;4.70;1.70;;;;;;;16.30;32.20;99248.98;108929;1277;138861;-57
2022/05/24 08:32:28;;;;;;;2.60;2.10;;;;;;;16.34;31.70;99249.95;109162;1277;22445;-57
2022/05/24 08:34:54;;;;;;;4.00;2.10;;;;;;;16.32;31.38;99247.95;109174;1277;22560;-57
2022/05/24 08:37:22;;;;;;;5.90;2.30;;;;;;;16.25;31.25;99247.59;109015;1277;138316;-58
2022/05/24 08:39:49;;;;;;;2.20;1.90;;;;;;;16.21;31.74;99242.80;109165;1277;23615;-58
2022/05/24 08:42:16;;;;;;;9.50;1.70;;;;;;;16.23;31.79;99249.33;108848;1277;138780;-57
2022/05/24 08:50:19;;;;;;;4.60;2.40;;;;;;;16.29;31.60;99246.16;108836;1277;137427;-58
2022/05/24 08:52:59;;;;;;;2.90;1.80;;;;;;;16.30;31.63;99243.61;109136;1277;22467;-58
2022/05/24 08:55:25;;;;;;;2.90;1.80;;;;;;;16.30;31.43;99237.98;108892;1277;138125;-57
2022/05/24 08:57:54;;;;;;;6.20;2.00;;;;;;;16.29;31.55;99244.60;108961;1277;22485;-58
2022/05/24 09:00:29;;;;;;;9.10;1.70;;;;;;;16.30;31.95;99245.65;108831;1277;138488;-58
2022/05/24 09:02:56;;;;;;;4.30;1.80;;;;;;;16.34;32.39;99240.54;108957;1277;23125;-58
2022/05/24 09:05:30;;;;;;;5.10;1.70;;;;;;;16.41;31.61;99237.45;109217;1277;23599;-58
2022/05/24 09:08:12;;;;;;;2.80;1.70;;;;;;;16.45;32.10;99240.60;109039;1277;139157;-58
2022/05/24 09:11:01;;;;;;;4.40;1.80;;;;;;;16.55;31.61;99240.05;108999;1277;23244;-58
2022/05/24 09:13:59;;;;;;;3.10;1.60;;;;;;;16.60;31.89;99235.33;108979;1277;137584;-58
2022/05/24 09:16:35;;;;;;;3.70;2.60;;;;;;;16.65;32.28;99235.42;108965;1277;22606;-58
2022/05/24 09:19:05;;;;;;;6.20;2.20;;;;;;;16.72;31.78;99238.21;108858;1277;138672;-58
2022/05/24 09:21:33;;;;;;;6.30;2.20;;;;;;;16.76;31.35;99233.77;108944;1277;22466;-58
2022/05/24 09:24:05;;;;;;;3.90;1.90;;;;;;;16.78;32.21;99232.48;109105;1277;138504;-58
2022/05/24 09:26:34;;;;;;;3.40;2.00;;;;;;;16.81;31.98;99230.77;108994;1277;22449;-58
2022/05/24 09:29:19;;;;;;;8.70;2.10;;;;;;;16.85;32.07;99226.19;109044;1277;23563;-58
2022/05/24 09:31:49;;;;;;;4.30;2.20;;;;;;;16.86;32.25;99227.05;109018;1277;139195;-57
2022/05/24 09:34:19;;;;;;;3.20;1.60;;;;;;;16.87;31.48;99225.91;108755;1277;22445;-57
2022/05/24 09:36:57;;;;;;;2.60;2.10;;;;;;;16.88;31.11;99228.52;109061;1277;141052;-57
2022/05/24 09:39:25;;;;;;;7.00;1.60;;;;;;;16.88;31.42;99230.78;109121;1277;22550;-57
2022/05/24 09:41:56;;;;;;;2.00;1.70;;;;;;;16.92;32.01;99230.53;109091;1277;22459;-57
2022/05/24 09:44:23;;;;;;;4.90;1.90;;;;;;;16.97;31.70;99229.50;109085;1277;138525;-57
2022/05/24 09:46:50;;;;;;;11.30;2.80;;;;;;;17.01;31.33;99225.85;109091;1277;22419;-57
2022/05/24 09:49:35;;;;;;;2.30;1.60;;;;;;;17.01;31.39;99226.17;108853;1277;138207;-57
2022/05/24 09:52:12;;;;;;;2.20;1.50;;;;;;;17.01;32.02;99231.52;109198;1277;22550;-57
2022/05/24 09:54:56;;;;;;;;;;;;;;;17.04;31.43;99234.25;109152;1277;138978;-57
2022/05/24 09:57:27;;;;;;;3.00;1.60;;;;;;;17.08;31.58;99233.01;109150;1277;22541;-57
2022/05/24 10:00:20;;;;;;;3.90;1.60;;;;;;;17.13;31.82;99235.85;109106;1277;23249;-57
2022/05/24 10:02:47;;;;;;;3.40;1.60;;;;;;;17.17;31.28;99233.32;109063;1277;22464;-57
2022/05/24 10:05:18;;;;;;;2.30;1.70;;;;;;;17.19;31.56;99233.27;109137;1277;23153;-57
2022/05/24 10:08:03;;;;;;;2.50;1.90;;;;;;;17.21;31.38;99236.64;109030;1277;138458;-57
2022/05/24 10:10:33;;;;;;;4.80;1.60;;;;;;;17.20;31.07;99233.73;108964;1277;22522;-57
2022/05/24 10:13:45;;;;;;;2.90;1.70;;;;;;;17.18;31.15;99220.02;108825;1278;138132;-57
2022/05/24 10:16:27;;;;;;;2.70;1.70;;;;;;;17.16;31.77;99222.15;108976;1277;23552;-57
2022/05/24 10:19:01;;;;;;;4.10;2.00;;;;;;;17.18;31.64;99226.52;109015;1274;138666;-58
2022/05/24 10:21:35;;;;;;;2.90;1.80;;;;;;;17.21;31.48;99225.23;109398;1274;23151;-58
2022/05/24 10:24:31;;;;;;;1.50;1.40;;;;;;;17.24;31.30;99226.27;109433;1274;23126;-58
2022/05/24 10:27:18;;;;;;;6.50;1.90;;;;;;;17.24;31.00;99218.23;109289;1274;138472;-58
2022/05/24 10:29:57;;;;;;;4.30;1.90;;;;;;;17.23;31.87;99218.65;109416;1274;22447;-58
2022/05/24 10:39:01;;;;;;;3.30;1.70;;;;;;;17.32;31.26;99219.58;109230;1274;138795;-58
2022/05/24 10:41:35;;;;;;;5.20;1.70;;;;;;;17.34;31.22;99216.52;109463;1274;22455;-58
2022/05/24 10:44:12;;;;;;;6.60;1.80;;;;;;;17.37;31.64;99214.52;109259;1274;138986;-58
2022/05/24 10:46:44;;;;;;;1.60;1.40;;;;;;;17.40;31.57;99211.49;109391;1274;23385;-58
2022/05/24 10:49:16;;;;;;;1.80;1.50;;;;;;;17.44;31.36;99211.85;109354;1274;138843;-58
2022/05/24 10:51:52;;;;;;;3.70;2.20;;;;;;;17.45;31.51;99200.48;109290;1274;23702;-58
2022/05/24 10:54:36;;;;;;;2.10;1.60;;;;;;;17.45;31.66;99202.48;109267;1274;22443;-58
2022/05/24 10:57:15;;;;;;;3.20;1.90;;;;;;;17.49;31.80;99204.11;109258;1274;137773;-58
2022/05/24 11:00:03;;;;;;;3.00;1.90;;;;;;;17.56;31.51;99208.98;109415;1274;23244;-59
2022/05/24 11:03:11;;;;;;;2.40;1.50;;;;;;;17.63;31.57;99212.20;109169;1274;137654;-59
2022/05/24 11:05:44;;;;;;;3.00;1.90;;;;;;;17.70;31.57;99211.09;109425;1274;23158;-59
2022/05/24 11:08:40;;;;;;;3.50;1.60;;;;;;;17.72;31.63;99210.95;109295;1274;138446;-59
2022/05/24 11:11:12;;;;;;;2.10;1.60;;;;;;;17.73;31.89;99205.67;109290;1274;22471;-59
2022/05/24 11:13:42;;;;;;;2.10;1.50;;;;;;;17.77;32.34;99211.69;109168;1274;138730;-59
2022/05/24 11:16:13;;;;;;;5.60;1.50;;;;;;;17.86;32.00;99213.77;109225;1274;23307;-59
2022/05/24 11:18:41;;;;;;;3.40;1.60;;;;;;;17.94;31.26;99204.20;109211;1274;22673;-59
2022/05/24 11:21:34;;;;;;;4.60;1.70;;;;;;;17.97;31.21;99205.73;109019;1274;138068;-59
2022/05/24 11:24:04;;;;;;;3.00;1.70;;;;;;;17.99;31.55;99211.70;109222;1274;23111;-59
2022/05/24 11:26:33;;;;;;;3.20;1.30;;;;;;;18.02;31.25;99209.32;109112;1273;137638;-59
2022/05/24 11:29:28;;;;;;;1.60;1.40;;;;;;;18.02;30.63;99206.04;109229;1274;22519;-59
2022/05/24 11:31:59;;;;;;;2.50;1.70;;;;;;;18.03;31.40;99206.14;108547;1281;138273;-59
2022/05/24 11:34:27;;;;;;;1.80;1.60;;;;;;;18.07;31.36;99203.88;108566;1281;22297;-59
2022/05/24 11:37:03;;;;;;;3.40;1.60;;;;;;;18.13;31.57;99208.31;108733;1280;139233;-59
2022/05/24 11:39:40;;;;;;;3.50;1.60;;;;;;;18.20;31.45;99207.80;108855;1280;22460;-59
2022/05/24 11:42:19;;;;;;;2.10;1.40;;;;;;;18.25;31.27;99204.13;108585;1281;22570;-59
2022/05/24 11:44:46;;;;;;;8.70;1.80;;;;;;;18.28;30.97;99203.11;108544;1281;137348;-59
2022/05/24 11:47:34;;;;;;;2.20;1.80;;;;;;;18.28;31.31;99207.23;108513;1281;22658;-59
2022/05/24 11:50:03;;;;;;;6.50;1.90;;;;;;;18.32;30.98;99200.85;108571;1280;139022;-59
2022/05/24 11:53:00;;;;;;;3.00;1.80;;;;;;;18.34;30.67;99207.96;108600;1281;22497;-58
2022/05/24 11:56:10;;;;;;;2.50;1.70;;;;;;;18.36;31.02;99205.31;108227;1280;137932;-58
2022/05/24 11:58:43;;;;;;;3.50;1.80;;;;;;;18.38;31.05;99213.23;104379;1280;23876;-57
2022/05/24 12:01:16;;;;;;;4.00;2.10;;;;;;;18.41;30.87;99203.92;108749;1281;138431;-58
2022/05/24 12:10:12;;;;;;;4.30;2.20;;;;;;;18.44;31.60;99198.77;109119;1274;23096;-58
2022/05/24 12:12:49;;;;;;;2.30;1.80;;;;;;;18.54;30.59;99195.17;109322;1274;22439;-58
2022/05/24 12:15:19;;;;;;;3.70;1.80;;;;;;;18.59;30.67;99195.84;109140;1274;137369;-58
2022/05/24 12:17:52;;;;;;;2.10;1.40;;;;;;;18.63;30.40;99196.92;109329;1274;22453;-58
2022/05/24 12:20:34;;;;;;;3.30;1.70;;;;;;;18.67;30.34;99198.53;109091;1276;138522;-58
2022/05/24 12:23:04;;;;;;;2.40;1.30;;;;;;;18.69;30.47;99191.95;109316;1274;23211;-58
2022/05/24 12:25:51;;;;;;;1.80;1.50;;;;;;;18.73;30.49;99195.39;108231;1277;138815;-58